createdAt,value
2023-11-01T00:07:11.705Z,99467.00
2023-11-01T00:17:14.561Z,99500.94
2023-11-01T00:27:17.070Z,99497.41
2023-11-01T00:37:19.579Z,99496.81
2023-11-01T00:47:22.126Z,99492.78
2023-11-01T00:57:24.633Z,99506.94
2023-11-01T01:07:28.076Z,99528.56
2023-11-01T01:17:30.886Z,99507.03
2023-11-01T01:27:33.506Z,99503.25
2023-11-01T01:37:36.064Z,99496.53
2023-11-01T01:47:38.680Z,99521.28
2023-11-01T01:57:41.279Z,99508.34
2023-11-01T02:07:43.863Z,99486.28
2023-11-01T02:17:46.722Z,99491.19
2023-11-01T02:27:49.320Z,99522.03
2023-11-01T02:37:52.115Z,99508.84
2023-11-01T02:47:54.784Z,99506.03
2023-11-01T02:57:57.416Z,99548.94
2023-11-01T03:08:00.169Z,99507.91
2023-11-01T03:18:02.735Z,99511.41
2023-11-01T03:28:05.216Z,99532.31
2023-11-01T03:38:07.863Z,99545.22
2023-11-01T03:48:10.503Z,99515.31
2023-11-01T03:58:13.299Z,99519.47
2023-11-01T04:08:16.412Z,99564.22
2023-11-01T04:18:19.150Z,99540.19
2023-11-01T04:28:21.889Z,99546.56
2023-11-01T04:38:24.633Z,99564.94
2023-11-01T04:48:27.493Z,99567.31
2023-11-01T04:58:30.680Z,99551.28
2023-11-01T05:08:33.439Z,99553.97
2023-11-01T05:18:36.247Z,99517.88
2023-11-01T05:28:39.032Z,99507.50
2023-11-01T05:38:43.323Z,99526.97
2023-11-01T05:48:46.465Z,99553.75
2023-11-01T05:58:49.196Z,99573.97
2023-11-01T06:08:53.095Z,99566.84
2023-11-01T06:18:57.070Z,99573.63
2023-11-01T06:28:59.559Z,99582.63
2023-11-01T06:39:02.324Z,99554.81
2023-11-01T06:49:04.888Z,99559.69
2023-11-01T06:59:07.641Z,99586.69
2023-11-01T07:09:10.881Z,99568.53
2023-11-01T07:19:14.457Z,99542.25
2023-11-01T07:29:17.933Z,99545.19
2023-11-01T07:39:20.477Z,99560.84
2023-11-01T07:49:22.987Z,99557.75
2023-11-01T07:59:25.578Z,99566.50
2023-11-01T08:09:28.146Z,99582.75
2023-11-01T08:19:30.671Z,99584.31
2023-11-01T08:29:36.609Z,99591.88
2023-11-01T08:39:39.198Z,99577.19
2023-11-01T08:49:41.726Z,99586.03
2023-11-01T08:59:44.289Z,99563.38
2023-11-01T09:09:54.349Z,99565.06
2023-11-01T09:19:57.097Z,99564.81
2023-11-01T09:29:59.665Z,99582.09
2023-11-01T09:40:02.330Z,99563.41
2023-11-01T09:50:07.795Z,99572.59
2023-11-01T10:00:13.044Z,99556.91
2023-11-01T10:10:18.069Z,99513.56
2023-11-01T10:20:29.284Z,99518.16
2023-11-01T10:30:31.780Z,99508.16
2023-11-01T10:40:34.934Z,99472.72
2023-11-01T10:50:38.145Z,99467.69
2023-11-01T11:00:45.620Z,99477.31
2023-11-01T11:10:48.279Z,99429.81
2023-11-01T11:20:53.514Z,99419.91
2023-11-01T11:31:09.151Z,99384.06
2023-11-01T11:41:15.820Z,99407.22
2023-11-01T11:51:18.755Z,99360.44
2023-11-01T12:01:28.022Z,99364.63
2023-11-01T12:11:30.820Z,99331.19
2023-11-01T12:21:33.420Z,99310.41
2023-11-01T12:31:35.965Z,99307.69
2023-11-01T12:41:38.606Z,99291.56
2023-11-01T12:51:41.215Z,99276.34
2023-11-01T13:01:43.749Z,99248.25
2023-11-01T13:11:46.350Z,99237.66
2023-11-01T13:21:49.438Z,99228.28
2023-11-01T13:31:54.456Z,99225.78
2023-11-01T13:41:57.648Z,99196.88
2023-11-01T13:52:00.991Z,99203.44
2023-11-01T14:02:04.297Z,99183.97
2023-11-01T14:12:07.651Z,99189.50
2023-11-01T14:22:10.163Z,99171.88
2023-11-01T14:32:12.735Z,99150.97
2023-11-01T14:42:16.355Z,99150.66
2023-11-01T14:52:18.870Z,99137.94
2023-11-01T15:02:21.543Z,99130.75
2023-11-01T15:12:24.215Z,99124.47
2023-11-01T15:22:28.994Z,99148.34
2023-11-01T15:32:31.438Z,99122.66
2023-11-01T15:42:33.985Z,99081.75
2023-11-01T15:52:36.645Z,99094.72
2023-11-01T16:02:39.438Z,99083.91
2023-11-01T16:12:42.122Z,99083.13
2023-11-01T16:22:44.616Z,99054.50
2023-11-01T16:32:56.153Z,99035.28
2023-11-01T16:43:00.368Z,99027.66
2023-11-01T16:53:03.124Z,99028.19
2023-11-01T17:03:09.236Z,99060.78
2023-11-01T17:13:12.357Z,99022.13
2023-11-01T17:23:16.233Z,99036.78
2023-11-01T17:33:34.940Z,99019.50
2023-11-01T17:43:42.980Z,99048.81
2023-11-01T17:53:45.616Z,99014.81
2023-11-01T18:03:48.383Z,99040.81
2023-11-01T18:13:50.949Z,98993.91
2023-11-01T18:23:58.515Z,98993.94
2023-11-01T18:34:03.302Z,98971.59
2023-11-01T18:44:24.966Z,98973.72
2023-11-01T18:54:38.105Z,98973.38
2023-11-01T19:04:40.849Z,98984.97
2023-11-01T19:14:43.456Z,98961.41
2023-11-01T19:24:46.256Z,98959.28
2023-11-01T19:34:48.914Z,98937.63
2023-11-01T19:44:51.496Z,98925.75
2023-11-01T19:54:54.308Z,98915.97
2023-11-01T20:04:56.967Z,98938.66
2023-11-01T20:14:59.620Z,98928.91
2023-11-01T20:25:02.179Z,98898.31
2023-11-01T20:35:05.073Z,98886.88
2023-11-01T20:45:08.139Z,98881.69
2023-11-01T20:55:10.748Z,98882.03
2023-11-01T21:05:13.677Z,98895.97
2023-11-01T21:15:16.452Z,98861.09
2023-11-01T21:25:20.760Z,98851.66
2023-11-01T21:35:31.621Z,98845.91
2023-11-01T21:45:50.357Z,98834.41
2023-11-01T21:55:59.149Z,98855.38
2023-11-01T22:06:02.025Z,98826.88
2023-11-01T22:16:06.282Z,98808.53
2023-11-01T22:26:08.730Z,98811.69
2023-11-01T22:46:21.845Z,98762.97
2023-11-01T22:56:24.379Z,98748.88
2023-11-01T23:06:28.294Z,98777.56
2023-11-01T23:16:30.825Z,98775.56
2023-11-01T23:26:53.351Z,98770.91
2023-11-01T23:36:56.149Z,98762.97
2023-11-01T23:46:59.060Z,98738.38
2023-11-01T23:57:01.899Z,98713.19
